createdAt,value
2023-09-23T00:00:37.094Z,0.55
2023-09-23T00:03:05.714Z,0.60
2023-09-23T00:05:32.690Z,0.50
2023-09-23T00:07:59.642Z,0.50
2023-09-23T00:10:26.600Z,0.80
2023-09-23T00:12:53.411Z,0.75
2023-09-23T00:15:20.258Z,0.50
2023-09-23T00:17:47.112Z,0.60
2023-09-23T00:20:15.318Z,0.45
2023-09-23T00:22:42.276Z,0.82
2023-09-23T00:25:09.611Z,0.40
2023-09-23T00:27:36.432Z,0.50
2023-09-23T00:30:03.442Z,0.73
2023-09-23T00:32:30.245Z,0.30
2023-09-23T00:34:57.266Z,0.60
2023-09-23T00:37:25.464Z,0.85
2023-09-23T00:39:52.309Z,0.55
2023-09-23T00:42:19.639Z,0.70
2023-09-23T00:44:46.580Z,0.63
2023-09-23T00:47:13.919Z,0.45
2023-09-23T00:49:42.496Z,0.60
2023-09-23T00:52:09.495Z,0.50
2023-09-23T00:54:37.679Z,0.50
2023-09-23T00:57:04.643Z,0.40
2023-09-23T00:59:31.466Z,0.73
2023-09-23T01:01:58.344Z,0.40
2023-09-23T01:04:25.173Z,0.50
2023-09-23T01:06:51.990Z,0.40
2023-09-23T01:09:18.793Z,0.57
2023-09-23T01:11:47.068Z,0.70
2023-09-23T01:14:13.923Z,0.77
2023-09-23T01:16:40.781Z,0.68
2023-09-23T01:19:07.630Z,0.30
2023-09-23T01:21:34.489Z,0.40
2023-09-23T01:24:02.675Z,0.35
2023-09-23T01:26:29.459Z,0.40
2023-09-23T01:28:56.314Z,0.40
2023-09-23T01:31:23.284Z,0.43
2023-09-23T01:33:50.183Z,0.70
2023-09-23T01:36:17.051Z,0.50
2023-09-23T01:38:44.204Z,0.70
2023-09-23T01:41:12.599Z,0.52
2023-09-23T01:43:39.410Z,0.50
2023-09-23T01:46:06.260Z,0.50
2023-09-23T01:48:33.072Z,0.55
2023-09-23T01:51:00.156Z,0.40
2023-09-23T01:53:27.090Z,0.65
2023-09-23T01:55:53.944Z,0.45
2023-09-23T01:58:22.107Z,0.50
2023-09-23T02:00:50.695Z,0.57
2023-09-23T02:03:17.532Z,0.38
2023-09-23T02:05:44.453Z,0.60
2023-09-23T02:08:11.264Z,0.57
2023-09-23T02:10:38.107Z,0.70
2023-09-23T02:13:04.943Z,0.50
2023-09-23T02:15:33.216Z,0.60
2023-09-23T02:18:00.016Z,0.75
2023-09-23T02:20:27.223Z,0.60
2023-09-23T02:22:55.158Z,0.75
2023-09-23T02:25:22.842Z,0.70
2023-09-23T02:27:49.612Z,0.70
2023-09-23T02:30:16.471Z,0.90
2023-09-23T02:32:46.318Z,0.75
2023-09-23T02:35:14.706Z,0.80
2023-09-23T02:37:42.634Z,0.88
2023-09-23T02:40:10.165Z,0.65
2023-09-23T02:42:37.117Z,0.80
2023-09-23T02:45:04.520Z,1.05
2023-09-23T02:47:31.369Z,0.70
2023-09-23T02:49:59.639Z,0.57
2023-09-23T02:52:26.405Z,0.93
2023-09-23T02:54:53.180Z,0.85
2023-09-23T02:57:19.968Z,1.20
2023-09-23T02:59:46.768Z,0.77
2023-09-23T03:02:13.604Z,1.27
2023-09-23T03:04:40.471Z,0.70
2023-09-23T03:07:08.700Z,0.80
2023-09-23T03:09:35.559Z,0.90
2023-09-23T03:12:02.387Z,0.90
2023-09-23T03:14:30.330Z,1.20
2023-09-23T03:16:57.295Z,1.00
2023-09-23T03:19:25.149Z,1.00
2023-09-23T03:21:52.680Z,0.80
2023-09-23T03:24:20.800Z,0.90
2023-09-23T03:26:47.606Z,1.30
2023-09-23T03:29:14.801Z,1.25
2023-09-23T03:31:41.775Z,1.05
2023-09-23T03:34:08.613Z,1.02
2023-09-23T03:36:35.430Z,1.10
2023-09-23T03:39:02.238Z,1.20
2023-09-23T03:41:30.408Z,1.35
2023-09-23T03:43:57.411Z,1.20
2023-09-23T03:46:24.181Z,1.10
2023-09-23T03:48:51.070Z,1.42
2023-09-23T03:51:18.527Z,1.30
2023-09-23T03:53:45.703Z,0.98
2023-09-23T03:56:12.788Z,1.25
2023-09-23T03:58:41.089Z,1.10
2023-09-23T04:01:07.922Z,1.05
2023-09-23T04:03:34.819Z,1.25
2023-09-23T04:06:01.892Z,1.10
2023-09-23T04:08:28.699Z,1.02
2023-09-23T04:10:55.619Z,1.10
2023-09-23T04:13:22.575Z,1.02
2023-09-23T04:15:50.830Z,1.23
2023-09-23T04:18:17.721Z,1.08
2023-09-23T04:20:44.464Z,1.10
2023-09-23T04:23:11.254Z,0.95
2023-09-23T04:25:38.030Z,0.82
2023-09-23T04:28:05.461Z,0.90
2023-09-23T04:30:32.250Z,1.27
2023-09-23T04:33:00.371Z,0.90
2023-09-23T04:35:27.297Z,0.80
2023-09-23T04:37:54.171Z,0.82
2023-09-23T04:40:21.209Z,1.20
2023-09-23T04:42:48.045Z,0.93
2023-09-23T04:45:15.160Z,0.85
2023-09-23T04:47:42.162Z,1.02
2023-09-23T04:50:11.056Z,0.77
2023-09-23T04:52:37.894Z,1.02
2023-09-23T04:55:05.338Z,0.70
2023-09-23T04:57:32.157Z,0.80
2023-09-23T04:59:59.072Z,0.88
2023-09-23T05:02:26.202Z,0.77
2023-09-23T05:04:53.125Z,0.70
2023-09-23T05:07:21.407Z,0.70
2023-09-23T05:09:48.194Z,0.75
2023-09-23T05:12:14.983Z,0.80
2023-09-23T05:14:41.821Z,0.60
2023-09-23T05:17:08.716Z,0.70
2023-09-23T05:19:35.865Z,0.75
2023-09-23T05:22:02.710Z,0.80
2023-09-23T05:24:30.824Z,0.70
2023-09-23T05:26:57.767Z,0.63
2023-09-23T05:29:24.720Z,0.90
2023-09-23T05:31:51.605Z,0.50
2023-09-23T05:34:18.433Z,0.63
2023-09-23T05:36:45.328Z,0.50
2023-09-23T05:39:12.225Z,0.70
2023-09-23T05:41:40.349Z,0.57
2023-09-23T05:44:07.324Z,0.47
2023-09-23T05:46:35.576Z,0.45
2023-09-23T05:49:02.721Z,0.60
2023-09-23T05:51:29.518Z,0.68
2023-09-23T05:53:56.278Z,0.70
2023-09-23T05:56:23.070Z,0.40
2023-09-23T05:58:51.314Z,0.40
2023-09-23T06:01:18.292Z,0.65
2023-09-23T06:03:45.402Z,0.63
2023-09-23T06:06:12.545Z,0.60
2023-09-23T06:08:39.327Z,1.33
2023-09-23T06:11:06.281Z,0.70
2023-09-23T06:13:33.497Z,0.52
2023-09-23T06:16:05.837Z,0.50
2023-09-23T06:18:33.421Z,0.50
2023-09-23T06:21:00.776Z,0.65
2023-09-23T06:23:27.591Z,0.70
2023-09-23T06:25:54.761Z,0.57
2023-09-23T06:28:21.885Z,0.50
2023-09-23T06:30:48.768Z,0.50
2023-09-23T06:33:16.958Z,0.70
2023-09-23T06:35:44.129Z,0.40
2023-09-23T06:38:11.053Z,0.40
2023-09-23T06:40:37.878Z,0.32
2023-09-23T06:43:04.939Z,0.38
2023-09-23T06:45:31.840Z,0.40
2023-09-23T06:47:58.737Z,0.60
2023-09-23T06:50:26.960Z,0.38
2023-09-23T06:52:53.803Z,0.70
2023-09-23T06:55:20.595Z,0.40
2023-09-23T06:57:47.367Z,0.28
2023-09-23T07:00:14.727Z,0.50
2023-09-23T07:02:41.578Z,0.50
2023-09-23T07:05:08.507Z,0.32
2023-09-23T07:07:36.654Z,0.40
2023-09-23T07:10:03.721Z,0.25
2023-09-23T07:12:30.568Z,0.68
2023-09-23T07:14:58.021Z,0.30
2023-09-23T07:17:26.275Z,0.40
2023-09-23T07:19:53.176Z,0.40
2023-09-23T07:22:20.022Z,0.60
2023-09-23T07:24:48.141Z,0.30
2023-09-23T07:27:15.007Z,0.90
2023-09-23T07:29:41.822Z,0.40
2023-09-23T07:32:08.686Z,0.32
2023-09-23T07:34:35.551Z,0.47
2023-09-23T07:37:02.330Z,0.40
2023-09-23T07:39:29.204Z,0.40
2023-09-23T07:41:57.304Z,0.57
2023-09-23T07:44:24.364Z,0.60
2023-09-23T07:46:51.207Z,0.60
2023-09-23T07:49:18.033Z,0.47
2023-09-23T07:51:44.838Z,0.35
2023-09-23T07:54:11.662Z,0.60
2023-09-23T07:56:38.417Z,0.47
2023-09-23T07:59:06.583Z,0.40
2023-09-23T08:01:33.472Z,0.73
2023-09-23T08:04:00.319Z,0.70
2023-09-23T08:06:27.116Z,0.60
2023-09-23T08:08:53.854Z,0.60
2023-09-23T08:11:20.841Z,0.50
2023-09-23T08:13:47.918Z,0.60
2023-09-23T08:16:16.428Z,0.30
2023-09-23T08:18:43.188Z,0.50
2023-09-23T08:21:10.002Z,0.40
2023-09-23T08:23:36.844Z,0.57
2023-09-23T08:26:03.682Z,0.43
2023-09-23T08:28:30.512Z,0.65
2023-09-23T08:30:57.412Z,0.38
2023-09-23T08:33:25.614Z,0.70
2023-09-23T08:35:52.431Z,0.50
2023-09-23T08:38:19.284Z,0.65
2023-09-23T08:40:46.903Z,0.50
2023-09-23T08:43:13.797Z,0.75
2023-09-23T08:45:43.470Z,0.50
2023-09-23T08:48:10.807Z,0.55
2023-09-23T08:50:40.045Z,0.47
2023-09-23T08:53:08.033Z,0.38
2023-09-23T08:55:36.111Z,0.60
2023-09-23T08:58:02.933Z,0.45
2023-09-23T09:00:30.186Z,0.30
2023-09-23T09:02:57.120Z,0.38
2023-09-23T09:05:24.026Z,0.50
2023-09-23T09:07:52.248Z,0.45
2023-09-23T09:10:19.183Z,0.50
2023-09-23T09:12:45.932Z,0.60
2023-09-23T09:15:12.724Z,0.40
2023-09-23T09:17:39.639Z,0.20
2023-09-23T09:20:08.084Z,0.57
2023-09-23T09:22:34.910Z,1.13
2023-09-23T09:25:04.552Z,0.55
2023-09-23T09:27:31.439Z,0.50
2023-09-23T09:30:07.581Z,0.50
2023-09-23T09:32:42.886Z,0.70
2023-09-23T09:35:14.535Z,0.57
2023-09-23T09:37:43.790Z,0.43
2023-09-23T09:40:15.841Z,0.50
2023-09-23T09:42:51.902Z,0.40
2023-09-23T09:45:20.158Z,0.40
2023-09-23T09:47:47.424Z,0.60
2023-09-23T09:50:15.130Z,0.60
2023-09-23T09:52:42.544Z,0.47
2023-09-23T09:55:10.458Z,0.73
2023-09-23T09:57:38.624Z,0.32
2023-09-23T10:00:07.042Z,0.57
2023-09-23T10:02:34.078Z,0.68
2023-09-23T10:05:03.628Z,0.60
2023-09-23T10:07:54.624Z,0.90
2023-09-23T10:10:30.752Z,0.80
2023-09-23T10:13:06.682Z,0.50
2023-09-23T10:15:36.781Z,0.32
2023-09-23T10:18:08.710Z,0.55
2023-09-23T10:20:35.751Z,0.60
2023-09-23T10:23:03.815Z,0.40
2023-09-23T10:25:37.943Z,0.60
2023-09-23T10:30:34.522Z,0.45
2023-09-23T10:33:01.369Z,0.60
2023-09-23T10:35:28.349Z,0.68
2023-09-23T10:37:55.198Z,0.70
2023-09-23T10:40:22.112Z,0.60
2023-09-23T10:42:49.681Z,0.60
2023-09-23T10:45:17.893Z,0.80
2023-09-23T10:47:44.790Z,0.70
2023-09-23T10:50:11.796Z,0.55
2023-09-23T10:52:38.914Z,0.70
2023-09-23T10:55:06.432Z,0.63
2023-09-23T10:57:33.203Z,0.43
2023-09-23T11:00:00.056Z,0.68
2023-09-23T11:02:32.343Z,0.50
2023-09-23T11:05:00.232Z,0.50
2023-09-23T11:07:27.110Z,0.65
2023-09-23T11:09:54.810Z,0.60
2023-09-23T11:12:21.682Z,0.50
2023-09-23T11:14:49.601Z,0.57
2023-09-23T11:17:23.260Z,0.50
2023-09-23T11:19:55.844Z,0.55
2023-09-23T11:22:26.263Z,0.40
2023-09-23T11:24:54.245Z,0.30
2023-09-23T11:27:21.892Z,0.40
2023-09-23T11:29:48.715Z,0.40
2023-09-23T11:32:19.955Z,0.52
2023-09-23T11:34:46.775Z,0.47
2023-09-23T11:37:14.950Z,0.40
2023-09-23T11:39:41.741Z,0.50
2023-09-23T11:42:08.530Z,0.43
2023-09-23T11:44:35.532Z,0.65
2023-09-23T11:47:02.480Z,0.60
2023-09-23T11:49:29.265Z,0.57
2023-09-23T11:51:56.287Z,0.50
2023-09-23T11:54:24.462Z,0.50
2023-09-23T11:56:51.358Z,0.40
2023-09-23T11:59:18.165Z,0.57
2023-09-23T12:01:44.911Z,0.17
2023-09-23T12:04:11.729Z,0.85
2023-09-23T12:06:38.592Z,0.75
2023-09-23T12:09:05.394Z,0.50
2023-09-23T12:11:33.665Z,0.60
2023-09-23T12:14:00.508Z,0.50
2023-09-23T12:16:27.400Z,0.65
2023-09-23T12:18:54.213Z,1.02
2023-09-23T12:21:21.001Z,0.45
2023-09-23T12:23:47.765Z,0.47
2023-09-23T12:26:14.590Z,0.50
2023-09-23T12:28:42.760Z,0.63
2023-09-23T12:31:09.508Z,1.13
2023-09-23T12:33:36.281Z,0.50
2023-09-23T12:36:03.210Z,0.55
2023-09-23T12:38:30.084Z,0.50
2023-09-23T12:40:57.103Z,0.88
2023-09-23T12:43:23.902Z,0.52
2023-09-23T12:45:52.143Z,0.50
2023-09-23T12:48:19.019Z,0.60
2023-09-23T12:50:45.931Z,0.60
2023-09-23T12:53:12.769Z,0.65
2023-09-23T12:55:39.552Z,0.63
2023-09-23T12:58:06.349Z,0.50
2023-09-23T13:00:33.278Z,0.50
2023-09-23T13:03:01.549Z,0.50
2023-09-23T13:05:28.404Z,0.60
2023-09-23T13:07:55.261Z,0.60
2023-09-23T13:10:22.049Z,0.98
2023-09-23T13:12:48.866Z,0.63
2023-09-23T13:15:15.676Z,0.68
2023-09-23T13:17:42.489Z,0.70
2023-09-23T13:20:11.790Z,0.82
2023-09-23T13:22:38.734Z,0.73
2023-09-23T13:25:06.404Z,0.60
2023-09-23T13:27:33.252Z,0.70
2023-09-23T13:30:00.094Z,0.70
2023-09-23T13:32:27.154Z,0.60
2023-09-23T13:34:54.031Z,0.80
2023-09-23T13:37:22.195Z,0.60
2023-09-23T13:39:49.017Z,0.52
2023-09-23T13:42:15.804Z,0.55
2023-09-23T13:44:42.654Z,0.70
2023-09-23T13:47:09.679Z,0.70
2023-09-23T13:49:36.732Z,0.63
2023-09-23T13:52:03.608Z,0.80
2023-09-23T13:54:31.794Z,1.00
2023-09-23T13:56:58.596Z,0.50
2023-09-23T13:59:25.445Z,0.70
2023-09-23T14:01:52.302Z,0.40
2023-09-23T14:04:19.179Z,0.85
2023-09-23T14:06:46.025Z,0.52
2023-09-23T14:09:12.818Z,0.70
2023-09-23T14:11:41.027Z,0.77
2023-09-23T14:14:07.874Z,1.25
2023-09-23T14:16:34.951Z,0.73
2023-09-23T14:19:01.774Z,0.50
2023-09-23T14:21:28.700Z,0.70
2023-09-23T14:23:55.455Z,0.47
2023-09-23T14:26:22.265Z,0.80
2023-09-23T14:28:50.390Z,0.70
2023-09-23T14:31:17.336Z,0.57
2023-09-23T14:33:44.234Z,0.63
2023-09-23T14:36:11.071Z,0.57
2023-09-23T14:38:37.921Z,0.55
2023-09-23T14:41:05.519Z,0.60
2023-09-23T14:43:32.312Z,0.60
2023-09-23T14:46:00.539Z,0.52
2023-09-23T14:48:27.516Z,0.63
2023-09-23T14:50:54.723Z,0.60
2023-09-23T14:53:21.612Z,0.68
2023-09-23T14:55:48.496Z,0.63
2023-09-23T14:58:15.338Z,0.80
2023-09-23T15:00:42.112Z,0.60
2023-09-23T15:03:10.421Z,0.63
2023-09-23T15:05:37.437Z,0.40
2023-09-23T15:08:05.022Z,0.60
2023-09-23T15:10:31.804Z,0.52
2023-09-23T15:12:58.794Z,0.80
2023-09-23T15:15:25.802Z,0.60
2023-09-23T15:17:52.768Z,0.40
2023-09-23T15:20:21.754Z,0.60
2023-09-23T15:22:48.608Z,0.60
2023-09-23T15:25:15.449Z,0.50
2023-09-23T15:27:42.600Z,0.80
2023-09-23T15:30:10.083Z,0.93
2023-09-23T15:32:37.627Z,0.65
2023-09-23T15:35:05.253Z,0.57
2023-09-23T15:37:33.985Z,0.70
2023-09-23T15:40:04.030Z,1.13
2023-09-23T15:42:30.812Z,0.63
2023-09-23T15:44:57.612Z,0.60
2023-09-23T15:47:24.522Z,0.80
2023-09-23T15:49:51.460Z,0.32
2023-09-23T15:52:18.329Z,0.75
2023-09-23T15:54:46.498Z,0.70
2023-09-23T15:57:13.338Z,0.60
2023-09-23T15:59:40.192Z,0.68
2023-09-23T16:02:07.420Z,0.73
2023-09-23T16:04:34.906Z,0.43
2023-09-23T16:07:03.018Z,0.60
2023-09-23T16:09:29.840Z,0.80
2023-09-23T16:11:57.970Z,0.68
2023-09-23T16:14:24.801Z,0.88
2023-09-23T16:16:51.620Z,0.93
2023-09-23T16:19:18.680Z,1.30
2023-09-23T16:21:45.470Z,0.73
2023-09-23T16:24:12.294Z,0.55
2023-09-23T16:26:39.223Z,0.82
2023-09-23T16:29:07.430Z,0.80
2023-09-23T16:31:34.390Z,0.77
2023-09-23T16:34:01.166Z,1.15
2023-09-23T16:36:27.945Z,0.80
2023-09-23T16:38:54.764Z,0.88
2023-09-23T16:41:21.627Z,0.77
2023-09-23T16:43:48.438Z,0.70
2023-09-23T16:46:16.610Z,0.55
2023-09-23T16:48:43.407Z,0.60
2023-09-23T16:51:10.210Z,0.70
2023-09-23T16:53:37.669Z,0.63
2023-09-23T16:56:04.688Z,0.70
2023-09-23T16:58:31.495Z,0.60
2023-09-23T17:00:58.325Z,0.63
2023-09-23T17:03:26.544Z,0.40
2023-09-23T17:05:53.756Z,0.55
2023-09-23T17:08:20.716Z,0.77
2023-09-23T17:10:47.639Z,0.57
2023-09-23T17:13:14.491Z,0.70
2023-09-23T17:15:41.339Z,0.60
2023-09-23T17:18:08.278Z,0.70
2023-09-23T17:20:36.630Z,0.60
2023-09-23T17:23:03.904Z,0.50
2023-09-23T17:25:30.806Z,0.57
2023-09-23T17:27:57.952Z,0.43
2023-09-23T17:30:24.850Z,0.60
2023-09-23T17:32:51.911Z,0.55
2023-09-23T17:35:18.921Z,0.38
2023-09-23T17:37:47.139Z,0.50
2023-09-23T17:40:14.550Z,0.60
2023-09-23T17:42:41.338Z,0.77
2023-09-23T17:45:09.050Z,0.50
2023-09-23T17:47:36.037Z,0.80
2023-09-23T17:50:02.994Z,0.70
2023-09-23T17:52:29.768Z,1.02
2023-09-23T17:54:57.874Z,0.80
2023-09-23T17:57:24.801Z,0.80
2023-09-23T17:59:51.731Z,0.88
2023-09-23T18:02:18.679Z,0.60
2023-09-23T18:04:45.476Z,0.60
2023-09-23T18:07:12.305Z,0.70
2023-09-23T18:09:39.895Z,0.80
2023-09-23T18:12:08.191Z,0.90
2023-09-23T18:14:34.965Z,0.80
2023-09-23T18:17:01.841Z,0.73
2023-09-23T18:19:28.666Z,0.68
2023-09-23T18:21:55.451Z,0.90
2023-09-23T18:24:22.316Z,0.77
2023-09-23T18:26:49.242Z,1.25
2023-09-23T18:29:17.440Z,0.88
2023-09-23T18:31:44.208Z,0.80
2023-09-23T18:34:11.106Z,1.00
2023-09-23T18:36:37.926Z,0.75
2023-09-23T18:39:05.198Z,0.90
2023-09-23T18:41:32.060Z,0.80
2023-09-23T18:43:58.816Z,0.98
2023-09-23T18:46:26.974Z,0.60
2023-09-23T18:48:53.806Z,1.17
2023-09-23T18:51:20.689Z,1.17
2023-09-23T18:53:47.702Z,1.10
2023-09-23T18:56:14.630Z,0.88
2023-09-23T18:58:41.418Z,0.95
2023-09-23T19:01:08.253Z,0.75
2023-09-23T19:03:36.513Z,0.90
2023-09-23T19:06:03.520Z,0.75
2023-09-23T19:08:30.366Z,0.90
2023-09-23T19:10:57.179Z,0.82
2023-09-23T19:13:23.953Z,0.90
2023-09-23T19:15:50.911Z,1.13
2023-09-23T19:18:18.055Z,0.90
2023-09-23T19:20:47.278Z,0.80
2023-09-23T19:23:14.093Z,1.15
2023-09-23T19:25:40.996Z,1.13
2023-09-23T19:28:07.781Z,1.20
2023-09-23T19:30:34.597Z,0.80
2023-09-23T19:33:01.463Z,1.20
2023-09-23T19:35:28.411Z,1.20
2023-09-23T19:37:57.168Z,1.10
2023-09-23T19:40:23.950Z,0.90
2023-09-23T19:42:50.711Z,1.08
2023-09-23T19:45:17.723Z,0.90
2023-09-23T19:47:44.743Z,1.10
2023-09-23T19:50:11.718Z,0.80
2023-09-23T19:52:38.543Z,0.98
2023-09-23T19:55:07.053Z,0.70
2023-09-23T19:57:33.806Z,0.90
2023-09-23T20:00:00.704Z,1.00
2023-09-23T20:02:28.211Z,0.90
2023-09-23T20:04:55.059Z,0.90
2023-09-23T20:07:21.821Z,0.90
2023-09-23T20:09:48.607Z,1.23
2023-09-23T20:12:16.762Z,1.02
2023-09-23T20:14:43.910Z,0.85
2023-09-23T20:17:10.892Z,0.98
2023-09-23T20:19:37.780Z,1.02
2023-09-23T20:22:04.601Z,0.85
2023-09-23T20:24:31.463Z,0.70
2023-09-23T20:26:58.281Z,1.05
2023-09-23T20:29:26.390Z,0.90
2023-09-23T20:31:53.214Z,0.90
2023-09-23T20:34:19.969Z,0.90
2023-09-23T20:36:46.739Z,0.70
2023-09-23T20:39:13.465Z,0.90
2023-09-23T20:41:40.364Z,0.70
2023-09-23T20:44:07.397Z,0.70
2023-09-23T20:46:35.678Z,1.05
2023-09-23T20:49:02.690Z,1.10
2023-09-23T20:51:29.782Z,1.00
2023-09-23T20:53:56.823Z,0.70
2023-09-23T20:56:23.962Z,0.90
2023-09-23T20:58:50.819Z,0.80
2023-09-23T21:01:17.756Z,0.90
2023-09-23T21:03:46.071Z,1.02
2023-09-23T21:06:13.228Z,0.75
2023-09-23T21:08:40.044Z,0.80
2023-09-23T21:11:06.904Z,0.90
2023-09-23T21:13:33.682Z,0.80
2023-09-23T21:16:00.903Z,0.80
2023-09-23T21:18:27.793Z,0.75
2023-09-23T21:20:56.092Z,0.88
2023-09-23T21:23:23.039Z,1.00
2023-09-23T21:25:50.091Z,0.80
2023-09-23T21:28:16.932Z,0.80
2023-09-23T21:30:43.731Z,1.00
2023-09-23T21:33:10.552Z,0.90
2023-09-23T21:35:37.478Z,0.82
2023-09-23T21:38:05.688Z,1.05
2023-09-23T21:40:32.489Z,1.15
2023-09-23T21:42:59.298Z,0.90
2023-09-23T21:45:26.053Z,0.80
2023-09-23T21:47:52.894Z,1.20
2023-09-23T21:50:19.824Z,1.00
2023-09-23T21:52:46.615Z,1.20
2023-09-23T21:55:14.811Z,1.13
2023-09-23T21:57:41.569Z,1.17
2023-09-23T22:00:09.266Z,0.90
2023-09-23T22:02:36.162Z,1.05
2023-09-23T22:05:03.072Z,1.00
2023-09-23T22:07:29.856Z,1.13
2023-09-23T22:09:56.620Z,1.20
2023-09-23T22:12:24.715Z,1.20
2023-09-23T22:14:51.520Z,1.20
2023-09-23T22:17:18.449Z,1.00
2023-09-23T22:19:45.282Z,1.10
2023-09-23T22:22:12.092Z,1.20
2023-09-23T22:24:38.829Z,0.95
2023-09-23T22:27:05.664Z,1.00
2023-09-23T22:29:33.802Z,1.83
2023-09-23T22:32:02.414Z,1.50
2023-09-23T22:34:29.247Z,1.30
2023-09-23T22:36:56.016Z,1.23
2023-09-23T22:39:22.824Z,1.15
2023-09-23T22:41:49.670Z,1.48
2023-09-23T22:44:16.691Z,1.10
2023-09-23T22:46:44.850Z,1.25
2023-09-23T22:49:11.680Z,1.08
2023-09-23T22:51:38.460Z,1.70
2023-09-23T22:54:05.546Z,1.30
2023-09-23T22:56:32.384Z,1.30
2023-09-23T22:58:59.119Z,1.50
2023-09-23T23:01:26.124Z,1.20
2023-09-23T23:03:54.404Z,1.73
2023-09-23T23:06:21.319Z,1.27
2023-09-23T23:08:48.149Z,1.50
2023-09-23T23:11:14.952Z,1.25
2023-09-23T23:13:41.758Z,1.27
2023-09-23T23:16:09.344Z,1.17
2023-09-23T23:18:36.273Z,1.35
2023-09-23T23:21:04.911Z,1.73
2023-09-23T23:23:31.991Z,1.10
2023-09-23T23:25:59.005Z,1.27
2023-09-23T23:28:26.487Z,1.30
2023-09-23T23:30:53.285Z,1.35
2023-09-23T23:33:20.227Z,1.38
2023-09-23T23:35:47.006Z,1.35
2023-09-23T23:38:15.251Z,1.27
2023-09-23T23:40:42.136Z,1.48
2023-09-23T23:43:08.866Z,1.05
2023-09-23T23:45:35.746Z,1.20
2023-09-23T23:48:02.874Z,1.48
2023-09-23T23:50:29.760Z,1.35
2023-09-23T23:52:56.577Z,1.60
2023-09-23T23:55:24.774Z,1.08
2023-09-23T23:57:51.509Z,1.67
